sensor_id;sensor_type;location;lat;lon;timestamp;pressure;altitude;pressure_sealevel;temperature;humidity
56731;BME280;42613;47.424;8.560;2022-12-29T00:02:18;96584.72;;;5.52;66.02
56731;BME280;42613;47.424;8.560;2022-12-29T00:04:44;96586.03;;;5.56;66.05
56731;BME280;42613;47.424;8.560;2022-12-29T00:07:09;96586.38;;;5.53;66.25
56731;BME280;42613;47.424;8.560;2022-12-29T00:09:35;96583.41;;;5.56;66.56
56731;BME280;42613;47.424;8.560;2022-12-29T00:12:02;96560.78;;;5.45;66.41
56731;BME280;42613;47.424;8.560;2022-12-29T00:14:28;96581.09;;;5.53;66.80
56731;BME280;42613;47.424;8.560;2022-12-29T00:17:13;96569.50;;;5.46;66.37
56731;BME280;42613;47.424;8.560;2022-12-29T00:19:39;96569.06;;;5.50;66.20
56731;BME280;42613;47.424;8.560;2022-12-29T00:22:23;96576.63;;;5.54;66.04
56731;BME280;42613;47.424;8.560;2022-12-29T00:25:09;96563.94;;;5.57;65.68
56731;BME280;42613;47.424;8.560;2022-12-29T00:27:53;96560.81;;;5.62;65.92
56731;BME280;42613;47.424;8.560;2022-12-29T00:30:38;96556.84;;;5.66;65.77
56731;BME280;42613;47.424;8.560;2022-12-29T00:33:25;96566.91;;;5.70;66.35
56731;BME280;42613;47.424;8.560;2022-12-29T00:36:24;96562.47;;;5.71;66.31
56731;BME280;42613;47.424;8.560;2022-12-29T00:38:56;96577.00;;;5.75;66.36
56731;BME280;42613;47.424;8.560;2022-12-29T00:41:41;96553.72;;;5.70;66.69
56731;BME280;42613;47.424;8.560;2022-12-29T00:44:25;96559.50;;;5.74;66.71
56731;BME280;42613;47.424;8.560;2022-12-29T00:46:50;96566.75;;;5.72;66.76
56731;BME280;42613;47.424;8.560;2022-12-29T00:49:16;96568.75;;;5.78;67.22
56731;BME280;42613;47.424;8.560;2022-12-29T00:51:59;96556.69;;;5.76;67.39
56731;BME280;42613;47.424;8.560;2022-12-29T00:54:26;96553.41;;;5.74;67.33
56731;BME280;42613;47.424;8.560;2022-12-29T00:56:52;96565.25;;;5.78;67.74
56731;BME280;42613;47.424;8.560;2022-12-29T00:59:19;96567.91;;;5.78;67.92
56731;BME280;42613;47.424;8.560;2022-12-29T01:01:44;96581.97;;;5.78;68.22
56731;BME280;42613;47.424;8.560;2022-12-29T01:04:10;96585.41;;;5.70;68.43
56731;BME280;42613;47.424;8.560;2022-12-29T01:06:38;96589.06;;;5.69;68.53
56731;BME280;42613;47.424;8.560;2022-12-29T01:09:04;96593.50;;;5.69;68.18
56731;BME280;42613;47.424;8.560;2022-12-29T01:11:48;96593.03;;;5.74;67.95
56731;BME280;42613;47.424;8.560;2022-12-29T01:14:14;96591.38;;;5.81;68.05
56731;BME280;42613;47.424;8.560;2022-12-29T01:16:39;96589.41;;;5.83;67.73
56731;BME280;42613;47.424;8.560;2022-12-29T01:19:05;96584.28;;;5.81;67.13
56731;BME280;42613;47.424;8.560;2022-12-29T01:21:32;96586.59;;;5.84;67.04
56731;BME280;42613;47.424;8.560;2022-12-29T01:23:57;96584.63;;;5.86;66.50
56731;BME280;42613;47.424;8.560;2022-12-29T01:26:23;96587.94;;;5.88;66.48
56731;BME280;42613;47.424;8.560;2022-12-29T01:28:48;96585.09;;;5.90;65.50
56731;BME280;42613;47.424;8.560;2022-12-29T01:31:14;96590.59;;;5.97;65.42
56731;BME280;42613;47.424;8.560;2022-12-29T01:33:41;96594.41;;;6.02;65.72
56731;BME280;42613;47.424;8.560;2022-12-29T01:36:09;96570.59;;;6.02;65.19
56731;BME280;42613;47.424;8.560;2022-12-29T01:38:36;96592.44;;;6.13;67.18
56731;BME280;42613;47.424;8.560;2022-12-29T01:41:02;96581.84;;;6.04;67.27
56731;BME280;42613;47.424;8.560;2022-12-29T01:46:15;96585.81;;;6.00;67.45
56731;BME280;42613;47.424;8.560;2022-12-29T01:48:44;96593.59;;;6.02;67.40
56731;BME280;42613;47.424;8.560;2022-12-29T01:51:10;96589.94;;;6.03;67.57
56731;BME280;42613;47.424;8.560;2022-12-29T01:53:36;96584.16;;;5.99;67.64
56731;BME280;42613;47.424;8.560;2022-12-29T01:56:05;96581.84;;;5.96;67.73
56731;BME280;42613;47.424;8.560;2022-12-29T01:58:34;96594.09;;;5.97;68.07
56731;BME280;42613;47.424;8.560;2022-12-29T02:01:01;96592.25;;;5.98;68.28
56731;BME280;42613;47.424;8.560;2022-12-29T02:03:28;96581.78;;;5.88;68.36
56731;BME280;42613;47.424;8.560;2022-12-29T02:06:05;96581.16;;;5.94;68.51
56731;BME280;42613;47.424;8.560;2022-12-29T02:08:33;96567.59;;;5.89;68.23
56731;BME280;42613;47.424;8.560;2022-12-29T02:10:59;96576.19;;;5.91;68.12
56731;BME280;42613;47.424;8.560;2022-12-29T02:13:26;96577.56;;;5.95;68.51
56731;BME280;42613;47.424;8.560;2022-12-29T02:21:36;96571.09;;;5.98;68.40
56731;BME280;42613;47.424;8.560;2022-12-29T02:32:43;96565.63;;;6.32;66.58
56731;BME280;42613;47.424;8.560;2022-12-29T02:35:31;96558.00;;;6.45;66.36
56731;BME280;42613;47.424;8.560;2022-12-29T02:38:27;96556.84;;;6.56;65.94
56731;BME280;42613;47.424;8.560;2022-12-29T02:41:06;96565.59;;;6.65;65.70
56731;BME280;42613;47.424;8.560;2022-12-29T02:43:47;96569.84;;;6.74;65.26
56731;BME280;42613;47.424;8.560;2022-12-29T02:46:36;96563.38;;;6.77;65.17
56731;BME280;42613;47.424;8.560;2022-12-29T02:51:52;96548.63;;;6.90;64.61
56731;BME280;42613;47.424;8.560;2022-12-29T02:54:20;96555.38;;;7.01;64.44
56731;BME280;42613;47.424;8.560;2022-12-29T02:59:49;96543.09;;;7.08;64.50
56731;BME280;42613;47.424;8.560;2022-12-29T03:02:29;96550.81;;;7.18;64.61
56731;BME280;42613;47.424;8.560;2022-12-29T03:05:19;96554.78;;;7.22;64.15
56731;BME280;42613;47.424;8.560;2022-12-29T03:07:57;96554.41;;;7.25;64.36
56731;BME280;42613;47.424;8.560;2022-12-29T03:10:43;96540.19;;;7.26;64.37
56731;BME280;42613;47.424;8.560;2022-12-29T03:16:18;96538.66;;;7.32;64.41
56731;BME280;42613;47.424;8.560;2022-12-29T03:18:56;96543.78;;;7.33;64.49
56731;BME280;42613;47.424;8.560;2022-12-29T03:21:31;96537.13;;;7.38;64.58
56731;BME280;42613;47.424;8.560;2022-12-29T03:24:17;96532.84;;;7.37;64.58
56731;BME280;42613;47.424;8.560;2022-12-29T03:26:45;96520.44;;;7.37;64.68
56731;BME280;42613;47.424;8.560;2022-12-29T03:29:13;96511.13;;;7.41;64.26
56731;BME280;42613;47.424;8.560;2022-12-29T03:31:42;96518.53;;;7.46;64.46
56731;BME280;42613;47.424;8.560;2022-12-29T03:34:10;96506.47;;;7.43;64.54
56731;BME280;42613;47.424;8.560;2022-12-29T03:36:44;96518.00;;;7.50;64.63
56731;BME280;42613;47.424;8.560;2022-12-29T03:39:12;96506.06;;;7.54;64.84
56731;BME280;42613;47.424;8.560;2022-12-29T03:41:41;96513.19;;;7.54;64.59
56731;BME280;42613;47.424;8.560;2022-12-29T03:44:07;96509.72;;;7.53;64.98
56731;BME280;42613;47.424;8.560;2022-12-29T03:46:33;96518.44;;;7.62;64.31
56731;BME280;42613;47.424;8.560;2022-12-29T03:48:59;96515.75;;;7.70;64.43
56731;BME280;42613;47.424;8.560;2022-12-29T03:51:24;96520.84;;;7.72;64.31
56731;BME280;42613;47.424;8.560;2022-12-29T03:53:49;96530.09;;;7.76;64.12
56731;BME280;42613;47.424;8.560;2022-12-29T03:56:14;96519.84;;;7.73;64.42
56731;BME280;42613;47.424;8.560;2022-12-29T03:58:40;96525.59;;;7.77;64.15
56731;BME280;42613;47.424;8.560;2022-12-29T04:01:05;96521.09;;;7.85;64.04
56731;BME280;42613;47.424;8.560;2022-12-29T04:03:30;96521.25;;;7.84;64.21
56731;BME280;42613;47.424;8.560;2022-12-29T04:05:56;96522.44;;;7.81;64.07
56731;BME280;42613;47.424;8.560;2022-12-29T04:08:21;96526.09;;;7.80;64.24
56731;BME280;42613;47.424;8.560;2022-12-29T04:10:48;96514.28;;;7.83;64.19
56731;BME280;42613;47.424;8.560;2022-12-29T04:13:14;96507.00;;;7.85;63.72
56731;BME280;42613;47.424;8.560;2022-12-29T04:15:39;96494.91;;;7.82;63.48
56731;BME280;42613;47.424;8.560;2022-12-29T04:18:06;96499.50;;;7.88;63.31
56731;BME280;42613;47.424;8.560;2022-12-29T04:20:31;96489.72;;;7.89;63.03
56731;BME280;42613;47.424;8.560;2022-12-29T04:23:15;96485.22;;;7.89;62.62
56731;BME280;42613;47.424;8.560;2022-12-29T04:25:41;96478.56;;;7.93;62.87
56731;BME280;42613;47.424;8.560;2022-12-29T04:28:09;96489.31;;;8.00;62.54
56731;BME280;42613;47.424;8.560;2022-12-29T04:30:35;96489.31;;;8.00;62.28
56731;BME280;42613;47.424;8.560;2022-12-29T04:33:00;96483.81;;;8.02;62.31
56731;BME280;42613;47.424;8.560;2022-12-29T04:35:25;96483.47;;;8.05;62.08
56731;BME280;42613;47.424;8.560;2022-12-29T04:37:51;96484.56;;;8.10;62.23
56731;BME280;42613;47.424;8.560;2022-12-29T04:40:16;96477.78;;;8.08;62.36
56731;BME280;42613;47.424;8.560;2022-12-29T04:42:41;96492.16;;;8.13;62.56
56731;BME280;42613;47.424;8.560;2022-12-29T04:45:07;96480.91;;;8.11;62.50
56731;BME280;42613;47.424;8.560;2022-12-29T04:47:33;96470.28;;;8.11;61.61
56731;BME280;42613;47.424;8.560;2022-12-29T04:49:58;96488.78;;;8.20;61.24
56731;BME280;42613;47.424;8.560;2022-12-29T04:52:23;96475.69;;;8.18;60.36
56731;BME280;42613;47.424;8.560;2022-12-29T04:54:49;96472.41;;;8.16;60.94
56731;BME280;42613;47.424;8.560;2022-12-29T04:57:14;96480.84;;;8.20;60.45
56731;BME280;42613;47.424;8.560;2022-12-29T04:59:39;96487.78;;;8.21;60.24
56731;BME280;42613;47.424;8.560;2022-12-29T05:02:05;96479.47;;;8.24;60.16
56731;BME280;42613;47.424;8.560;2022-12-29T05:04:30;96472.50;;;8.23;59.83
56731;BME280;42613;47.424;8.560;2022-12-29T05:06:55;96480.63;;;8.21;59.66
56731;BME280;42613;47.424;8.560;2022-12-29T05:09:21;96495.00;;;8.27;59.33
56731;BME280;42613;47.424;8.560;2022-12-29T05:11:46;96487.44;;;8.24;59.24
56731;BME280;42613;47.424;8.560;2022-12-29T05:14:11;96473.22;;;8.31;58.82
56731;BME280;42613;47.424;8.560;2022-12-29T05:16:37;96476.72;;;8.32;58.89
56731;BME280;42613;47.424;8.560;2022-12-29T05:19:02;96476.72;;;8.32;58.04
56731;BME280;42613;47.424;8.560;2022-12-29T05:21:27;96478.03;;;8.36;57.63
56731;BME280;42613;47.424;8.560;2022-12-29T05:23:53;96484.25;;;8.43;57.33
56731;BME280;42613;47.424;8.560;2022-12-29T05:26:18;96474.84;;;8.41;57.35
56731;BME280;42613;47.424;8.560;2022-12-29T05:28:47;96476.84;;;8.53;56.81
56731;BME280;42613;47.424;8.560;2022-12-29T05:31:12;96478.88;;;8.51;57.25
56731;BME280;42613;47.424;8.560;2022-12-29T05:33:37;96479.53;;;8.53;56.95
56731;BME280;42613;47.424;8.560;2022-12-29T05:36:09;96483.00;;;8.54;57.29
56731;BME280;42613;47.424;8.560;2022-12-29T05:38:35;96487.66;;;8.52;57.52
56731;BME280;42613;47.424;8.560;2022-12-29T05:41:00;96481.69;;;8.50;57.54
56731;BME280;42613;47.424;8.560;2022-12-29T05:43:25;96491.75;;;8.54;58.14
56731;BME280;42613;47.424;8.560;2022-12-29T05:45:52;96493.22;;;8.57;57.96
56731;BME280;42613;47.424;8.560;2022-12-29T05:48:17;96485.63;;;8.54;58.17
56731;BME280;42613;47.424;8.560;2022-12-29T05:50:42;96492.88;;;8.60;57.92
56731;BME280;42613;47.424;8.560;2022-12-29T05:53:11;96500.13;;;8.66;57.67
56731;BME280;42613;47.424;8.560;2022-12-29T05:55:36;96492.69;;;8.62;58.05
56731;BME280;42613;47.424;8.560;2022-12-29T05:58:02;96498.66;;;8.64;58.01
56731;BME280;42613;47.424;8.560;2022-12-29T06:00:27;96506.63;;;8.64;57.87
56731;BME280;42613;47.424;8.560;2022-12-29T06:02:52;96501.94;;;8.66;57.79
56731;BME280;42613;47.424;8.560;2022-12-29T06:05:18;96494.34;;;8.63;57.43
56731;BME280;42613;47.424;8.560;2022-12-29T06:07:43;96502.13;;;8.64;57.22
56731;BME280;42613;47.424;8.560;2022-12-29T06:10:09;96502.75;;;8.66;57.14
56731;BME280;42613;47.424;8.560;2022-12-29T06:12:35;96506.25;;;8.67;57.21
56731;BME280;42613;47.424;8.560;2022-12-29T06:15:00;96503.66;;;8.73;57.50
56731;BME280;42613;47.424;8.560;2022-12-29T06:17:25;96497.44;;;8.66;57.21
56731;BME280;42613;47.424;8.560;2022-12-29T06:19:52;96495.44;;;8.68;57.36
56731;BME280;42613;47.424;8.560;2022-12-29T06:22:17;96507.91;;;8.68;57.85
56731;BME280;42613;47.424;8.560;2022-12-29T06:24:42;96508.00;;;8.60;58.08
56731;BME280;42613;47.424;8.560;2022-12-29T06:27:08;96518.13;;;8.71;58.51
56731;BME280;42613;47.424;8.560;2022-12-29T06:29:33;96510.25;;;8.63;58.93
56731;BME280;42613;47.424;8.560;2022-12-29T06:32:00;96498.00;;;8.62;59.12
56731;BME280;42613;47.424;8.560;2022-12-29T06:34:25;96508.41;;;8.78;59.96
56731;BME280;42613;47.424;8.560;2022-12-29T06:36:51;96508.97;;;8.73;60.04
56731;BME280;42613;47.424;8.560;2022-12-29T06:39:16;96499.16;;;8.74;59.61
56731;BME280;42613;47.424;8.560;2022-12-29T06:41:41;96495.53;;;8.75;59.30
56731;BME280;42613;47.424;8.560;2022-12-29T06:44:07;96497.38;;;8.74;59.63
56731;BME280;42613;47.424;8.560;2022-12-29T06:46:32;96496.53;;;8.74;60.04
56731;BME280;42613;47.424;8.560;2022-12-29T06:48:58;96497.53;;;8.73;60.47
56731;BME280;42613;47.424;8.560;2022-12-29T06:51:23;96497.34;;;8.89;59.90
56731;BME280;42613;47.424;8.560;2022-12-29T06:53:49;96502.84;;;8.88;60.38
56731;BME280;42613;47.424;8.560;2022-12-29T06:56:14;96499.94;;;8.83;60.78
56731;BME280;42613;47.424;8.560;2022-12-29T06:58:39;96506.06;;;8.83;61.01
56731;BME280;42613;47.424;8.560;2022-12-29T07:01:05;96499.06;;;8.82;61.58
56731;BME280;42613;47.424;8.560;2022-12-29T07:03:30;96509.53;;;8.84;61.73
56731;BME280;42613;47.424;8.560;2022-12-29T07:05:55;96508.72;;;8.83;62.09
56731;BME280;42613;47.424;8.560;2022-12-29T07:08:23;96520.31;;;8.82;62.07
56731;BME280;42613;47.424;8.560;2022-12-29T07:10:48;96512.19;;;8.84;62.87
56731;BME280;42613;47.424;8.560;2022-12-29T07:13:14;96511.34;;;8.98;62.96
56731;BME280;42613;47.424;8.560;2022-12-29T07:15:39;96503.00;;;9.01;63.15
56731;BME280;42613;47.424;8.560;2022-12-29T07:18:04;96502.25;;;9.07;63.45
56731;BME280;42613;47.424;8.560;2022-12-29T07:20:30;96502.56;;;8.98;63.68
56731;BME280;42613;47.424;8.560;2022-12-29T07:22:55;96496.22;;;8.99;63.49
56731;BME280;42613;47.424;8.560;2022-12-29T07:25:21;96501.19;;;9.02;63.54
56731;BME280;42613;47.424;8.560;2022-12-29T07:27:47;96494.94;;;8.94;63.64
56731;BME280;42613;47.424;8.560;2022-12-29T07:30:13;96489.19;;;8.91;63.73
56731;BME280;42613;47.424;8.560;2022-12-29T07:32:39;96501.69;;;9.12;63.21
56731;BME280;42613;47.424;8.560;2022-12-29T07:35:05;96487.91;;;9.02;63.64
56731;BME280;42613;47.424;8.560;2022-12-29T07:37:31;96490.56;;;9.02;63.38
56731;BME280;42613;47.424;8.560;2022-12-29T07:39:57;96486.25;;;9.01;63.51
56731;BME280;42613;47.424;8.560;2022-12-29T07:42:25;96489.91;;;9.00;63.57
56731;BME280;42613;47.424;8.560;2022-12-29T07:44:50;96499.78;;;9.06;63.35
56731;BME280;42613;47.424;8.560;2022-12-29T07:47:16;96490.81;;;9.07;63.36
56731;BME280;42613;47.424;8.560;2022-12-29T07:49:41;96495.75;;;9.10;63.25
56731;BME280;42613;47.424;8.560;2022-12-29T07:52:06;96500.06;;;9.11;63.15
56731;BME280;42613;47.424;8.560;2022-12-29T07:54:31;96501.88;;;9.25;62.37
56731;BME280;42613;47.424;8.560;2022-12-29T07:56:57;96491.25;;;9.25;61.99
56731;BME280;42613;47.424;8.560;2022-12-29T07:59:25;96503.69;;;9.25;61.59
56731;BME280;42613;47.424;8.560;2022-12-29T08:01:50;96481.16;;;9.21;61.65
56731;BME280;42613;47.424;8.560;2022-12-29T08:04:15;96504.06;;;9.22;61.62
56731;BME280;42613;47.424;8.560;2022-12-29T08:06:41;96507.91;;;9.34;61.30
56731;BME280;42613;47.424;8.560;2022-12-29T08:09:06;96512.53;;;9.47;60.98
56731;BME280;42613;47.424;8.560;2022-12-29T08:11:31;96516.63;;;9.49;60.98
56731;BME280;42613;47.424;8.560;2022-12-29T08:13:57;96526.47;;;9.49;60.81
56731;BME280;42613;47.424;8.560;2022-12-29T08:16:22;96522.72;;;9.43;61.12
56731;BME280;42613;47.424;8.560;2022-12-29T08:18:47;96533.34;;;9.43;60.96
56731;BME280;42613;47.424;8.560;2022-12-29T08:21:12;96522.88;;;9.42;61.29
56731;BME280;42613;47.424;8.560;2022-12-29T08:23:38;96531.44;;;9.37;60.99
56731;BME280;42613;47.424;8.560;2022-12-29T08:26:05;96528.94;;;9.50;60.87
56731;BME280;42613;47.424;8.560;2022-12-29T08:28:31;96536.63;;;9.45;61.04
56731;BME280;42613;47.424;8.560;2022-12-29T08:30:57;96540.09;;;9.46;60.59
56731;BME280;42613;47.424;8.560;2022-12-29T08:33:23;96528.59;;;9.38;60.24
56731;BME280;42613;47.424;8.560;2022-12-29T08:36:09;96536.56;;;9.38;60.18
56731;BME280;42613;47.424;8.560;2022-12-29T08:45:47;96548.53;;;9.49;59.32
56731;BME280;42613;47.424;8.560;2022-12-29T09:09:06;96562.03;;;9.84;57.43
56731;BME280;42613;47.424;8.560;2022-12-29T09:11:36;96568.28;;;9.98;57.30
56731;BME280;42613;47.424;8.560;2022-12-29T09:14:01;96570.00;;;10.06;57.28
56731;BME280;42613;47.424;8.560;2022-12-29T09:16:27;96550.34;;;10.07;57.55
56731;BME280;42613;47.424;8.560;2022-12-29T09:18:52;96560.81;;;10.08;57.31
56731;BME280;42613;47.424;8.560;2022-12-29T09:21:19;96568.31;;;10.26;57.03
56731;BME280;42613;47.424;8.560;2022-12-29T09:23:45;96570.06;;;10.34;57.01
56731;BME280;42613;47.424;8.560;2022-12-29T09:26:16;96572.53;;;10.35;57.32
56731;BME280;42613;47.424;8.560;2022-12-29T09:28:41;96574.34;;;10.35;57.45
56731;BME280;42613;47.424;8.560;2022-12-29T09:31:10;96561.25;;;10.33;57.42
56731;BME280;42613;47.424;8.560;2022-12-29T09:33:35;96559.28;;;10.21;58.09
56731;BME280;42613;47.424;8.560;2022-12-29T09:36:02;96567.81;;;10.31;58.01
56731;BME280;42613;47.424;8.560;2022-12-29T09:38:32;96559.16;;;10.29;57.93
56731;BME280;42613;47.424;8.560;2022-12-29T09:41:13;96567.44;;;10.41;57.70
56731;BME280;42613;47.424;8.560;2022-12-29T09:43:53;96559.66;;;10.39;57.59
56731;BME280;42613;47.424;8.560;2022-12-29T09:46:48;96560.50;;;10.39;57.80
56731;BME280;42613;47.424;8.560;2022-12-29T09:53:03;96555.53;;;10.36;56.64
56731;BME280;42613;47.424;8.560;2022-12-29T09:55:45;96571.97;;;10.40;57.06
56731;BME280;42613;47.424;8.560;2022-12-29T09:59:17;96559.78;;;10.52;56.64
56731;BME280;42613;47.424;8.560;2022-12-29T10:02:46;96550.34;;;10.50;57.86
56731;BME280;42613;47.424;8.560;2022-12-29T10:04:59;96549.06;;;10.46;58.48
56731;BME280;42613;47.424;8.560;2022-12-29T10:11:04;96532.66;;;10.42;58.26
56731;BME280;42613;47.424;8.560;2022-12-29T10:20:23;96547.66;;;10.78;56.42
56731;BME280;42613;47.424;8.560;2022-12-29T10:25:41;96532.50;;;10.85;56.63
56731;BME280;42613;47.424;8.560;2022-12-29T10:28:17;96531.34;;;10.94;56.25
56731;BME280;42613;47.424;8.560;2022-12-29T10:30:50;96512.63;;;10.88;56.89
56731;BME280;42613;47.424;8.560;2022-12-29T10:33:42;96510.59;;;10.90;56.60
56731;BME280;42613;47.424;8.560;2022-12-29T10:36:52;96515.31;;;10.88;56.59
56731;BME280;42613;47.424;8.560;2022-12-29T10:39:46;96513.69;;;10.87;56.13
56731;BME280;42613;47.424;8.560;2022-12-29T10:42:37;96519.78;;;10.80;56.21
56731;BME280;42613;47.424;8.560;2022-12-29T10:45:19;96507.50;;;10.79;56.61
56731;BME280;42613;47.424;8.560;2022-12-29T10:51:44;96498.03;;;10.77;56.84
56731;BME280;42613;47.424;8.560;2022-12-29T10:57:43;96498.91;;;10.84;56.60
56731;BME280;42613;47.424;8.560;2022-12-29T11:00:20;96497.91;;;10.92;56.47
56731;BME280;42613;47.424;8.560;2022-12-29T11:06:23;96499.13;;;10.89;56.62
56731;BME280;42613;47.424;8.560;2022-12-29T11:09:22;96503.00;;;10.87;56.76
56731;BME280;42613;47.424;8.560;2022-12-29T11:12:00;96508.38;;;10.93;57.00
56731;BME280;42613;47.424;8.560;2022-12-29T11:14:34;96488.66;;;10.88;56.82
56731;BME280;42613;47.424;8.560;2022-12-29T11:17:20;96493.38;;;10.86;56.88
56731;BME280;42613;47.424;8.560;2022-12-29T11:20:30;96494.31;;;11.13;56.82
56731;BME280;42613;47.424;8.560;2022-12-29T11:26:31;96511.00;;;11.28;56.62
56731;BME280;42613;47.424;8.560;2022-12-29T11:31:46;96486.31;;;11.13;56.74
56731;BME280;42613;47.424;8.560;2022-12-29T11:34:38;96486.97;;;11.21;56.09
56731;BME280;42613;47.424;8.560;2022-12-29T11:37:38;96483.44;;;11.08;56.88
56731;BME280;42613;47.424;8.560;2022-12-29T11:40:17;96482.44;;;11.15;57.01
56731;BME280;42613;47.424;8.560;2022-12-29T11:43:26;96471.19;;;11.27;57.88
56731;BME280;42613;47.424;8.560;2022-12-29T11:49:32;96453.50;;;11.06;58.68
56731;BME280;42613;47.424;8.560;2022-12-29T11:52:30;96453.50;;;11.06;58.52
56731;BME280;42613;47.424;8.560;2022-12-29T11:55:16;96456.53;;;11.03;58.38
56731;BME280;42613;47.424;8.560;2022-12-29T11:57:43;96463.78;;;11.15;57.83
56731;BME280;42613;47.424;8.560;2022-12-29T12:00:37;96455.72;;;11.02;58.70
56731;BME280;42613;47.424;8.560;2022-12-29T12:03:56;96433.41;;;11.10;58.88
56731;BME280;42613;47.424;8.560;2022-12-29T12:09:47;96428.38;;;11.41;58.51
56731;BME280;42613;47.424;8.560;2022-12-29T12:13:17;96425.06;;;11.33;59.33
56731;BME280;42613;47.424;8.560;2022-12-29T12:16:21;96429.41;;;11.47;59.08
56731;BME280;42613;47.424;8.560;2022-12-29T12:26:09;96425.47;;;11.36;60.35
56731;BME280;42613;47.424;8.560;2022-12-29T12:38:47;96430.22;;;11.68;59.61
56731;BME280;42613;47.424;8.560;2022-12-29T12:55:56;96409.75;;;11.75;60.38
56731;BME280;42613;47.424;8.560;2022-12-29T13:28:05;96396.78;;;11.52;61.52
56731;BME280;42613;47.424;8.560;2022-12-29T13:30:53;96398.22;;;11.54;61.25
56731;BME280;42613;47.424;8.560;2022-12-29T13:37:03;96382.63;;;11.45;62.12
56731;BME280;42613;47.424;8.560;2022-12-29T13:43:02;96382.59;;;11.31;62.95
56731;BME280;42613;47.424;8.560;2022-12-29T13:45:59;96383.22;;;11.27;63.53
56731;BME280;42613;47.424;8.560;2022-12-29T13:49:04;96388.56;;;11.33;63.49
56731;BME280;42613;47.424;8.560;2022-12-29T13:54:54;96380.34;;;11.28;62.78
56731;BME280;42613;47.424;8.560;2022-12-29T13:57:35;96386.69;;;11.27;62.92
56731;BME280;42613;47.424;8.560;2022-12-29T14:10:50;96394.88;;;11.26;63.98
56731;BME280;42613;47.424;8.560;2022-12-29T14:17:10;96389.38;;;11.27;63.93
56731;BME280;42613;47.424;8.560;2022-12-29T14:19:57;96400.66;;;11.29;64.43
56731;BME280;42613;47.424;8.560;2022-12-29T14:22:24;96387.75;;;11.33;64.16
56731;BME280;42613;47.424;8.560;2022-12-29T14:25:02;96398.19;;;11.34;64.24
56731;BME280;42613;47.424;8.560;2022-12-29T14:27:52;96382.97;;;11.15;65.03
56731;BME280;42613;47.424;8.560;2022-12-29T14:42:13;96423.22;;;11.27;64.97
56731;BME280;42613;47.424;8.560;2022-12-29T14:45:07;96421.97;;;11.29;64.94
56731;BME280;42613;47.424;8.560;2022-12-29T14:47:58;96431.84;;;11.35;64.58
56731;BME280;42613;47.424;8.560;2022-12-29T14:51:01;96421.78;;;11.24;65.38
56731;BME280;42613;47.424;8.560;2022-12-29T14:57:03;96419.28;;;11.16;65.87
56731;BME280;42613;47.424;8.560;2022-12-29T15:00:22;96414.75;;;11.10;66.13
56731;BME280;42613;47.424;8.560;2022-12-29T15:06:35;96447.81;;;11.22;65.62
56731;BME280;42613;47.424;8.560;2022-12-29T15:12:54;96440.81;;;11.21;65.94
56731;BME280;42613;47.424;8.560;2022-12-29T15:32:18;96448.78;;;11.08;67.89
56731;BME280;42613;47.424;8.560;2022-12-29T15:38:58;96450.38;;;10.95;69.53
56731;BME280;42613;47.424;8.560;2022-12-29T15:41:29;96451.34;;;10.88;70.60
56731;BME280;42613;47.424;8.560;2022-12-29T15:50:47;96441.28;;;10.76;71.92
56731;BME280;42613;47.424;8.560;2022-12-29T15:56:33;96441.22;;;10.63;72.73
56731;BME280;42613;47.424;8.560;2022-12-29T15:59:35;96438.19;;;10.73;72.71
56731;BME280;42613;47.424;8.560;2022-12-29T16:05:16;96453.72;;;10.63;72.95
56731;BME280;42613;47.424;8.560;2022-12-29T16:11:23;96455.16;;;10.65;73.27
56731;BME280;42613;47.424;8.560;2022-12-29T16:14:34;96473.13;;;10.50;74.70
56731;BME280;42613;47.424;8.560;2022-12-29T16:17:30;96468.63;;;10.57;74.39
56731;BME280;42613;47.424;8.560;2022-12-29T16:20:22;96459.34;;;10.46;74.67
56731;BME280;42613;47.424;8.560;2022-12-29T16:23:09;96472.53;;;10.54;74.50
56731;BME280;42613;47.424;8.560;2022-12-29T16:28:42;96462.22;;;10.45;74.62
56731;BME280;42613;47.424;8.560;2022-12-29T16:31:47;96462.41;;;10.43;74.88
56731;BME280;42613;47.424;8.560;2022-12-29T16:40:59;96472.19;;;10.36;76.31
56731;BME280;42613;47.424;8.560;2022-12-29T16:43:34;96461.59;;;10.43;75.24
56731;BME280;42613;47.424;8.560;2022-12-29T16:46:56;96460.47;;;10.30;76.56
56731;BME280;42613;47.424;8.560;2022-12-29T16:49:40;96463.56;;;10.34;77.03
56731;BME280;42613;47.424;8.560;2022-12-29T16:52:34;96481.81;;;10.37;77.20
56731;BME280;42613;47.424;8.560;2022-12-29T17:05:36;96486.53;;;10.13;80.36
56731;BME280;42613;47.424;8.560;2022-12-29T17:12:26;96502.50;;;10.13;81.10
56731;BME280;42613;47.424;8.560;2022-12-29T17:25:33;96509.00;;;9.83;84.69
56731;BME280;42613;47.424;8.560;2022-12-29T17:28:18;96507.84;;;9.92;84.13
56731;BME280;42613;47.424;8.560;2022-12-29T17:30:45;96507.84;;;9.92;84.64
56731;BME280;42613;47.424;8.560;2022-12-29T17:33:18;96498.22;;;9.91;85.11
56731;BME280;42613;47.424;8.560;2022-12-29T17:35:44;96511.72;;;9.89;85.03
56731;BME280;42613;47.424;8.560;2022-12-29T17:38:22;96496.91;;;9.80;85.14
56731;BME280;42613;47.424;8.560;2022-12-29T17:40:48;96498.44;;;9.68;86.23
56731;BME280;42613;47.424;8.560;2022-12-29T17:43:15;96516.84;;;9.69;86.48
56731;BME280;42613;47.424;8.560;2022-12-29T17:45:41;96517.91;;;9.75;85.96
56731;BME280;42613;47.424;8.560;2022-12-29T17:48:15;96509.31;;;9.73;86.17
56731;BME280;42613;47.424;8.560;2022-12-29T17:50:42;96509.69;;;9.70;86.72
56731;BME280;42613;47.424;8.560;2022-12-29T17:53:15;96507.22;;;9.68;86.63
56731;BME280;42613;47.424;8.560;2022-12-29T17:55:41;96518.69;;;9.69;86.94
56731;BME280;42613;47.424;8.560;2022-12-29T17:58:19;96507.41;;;9.67;86.44
56731;BME280;42613;47.424;8.560;2022-12-29T18:00:50;96508.25;;;9.67;86.56
56731;BME280;42613;47.424;8.560;2022-12-29T18:03:18;96501.28;;;9.66;86.56
56731;BME280;42613;47.424;8.560;2022-12-29T18:05:44;96495.19;;;9.72;85.71
56731;BME280;42613;47.424;8.560;2022-12-29T18:08:10;96504.16;;;9.71;85.69
56731;BME280;42613;47.424;8.560;2022-12-29T18:10:39;96507.22;;;9.68;85.28
56731;BME280;42613;47.424;8.560;2022-12-29T18:13:04;96495.50;;;9.63;85.33
56731;BME280;42613;47.424;8.560;2022-12-29T18:15:35;96495.13;;;9.66;85.29